createdAt,value
2019-01-17T00:00:37.252Z,75.80
2019-01-17T00:02:42.513Z,76.10
2019-01-17T00:04:59.946Z,76.20
2019-01-17T00:07:14.154Z,75.80
2019-01-17T00:09:19.415Z,75.80
2019-01-17T00:11:24.633Z,75.70
2019-01-17T00:13:48.185Z,75.40
2019-01-17T00:15:56.178Z,75.20
2019-01-17T00:18:01.491Z,74.80
2019-01-17T00:20:15.629Z,74.80
2019-01-17T00:22:23.794Z,74.50
2019-01-17T00:24:31.578Z,74.20
2019-01-17T00:26:36.824Z,74.50
2019-01-17T00:28:50.854Z,74.50
2019-01-17T00:30:56.093Z,74.60
2019-01-17T00:33:06.911Z,74.60
2019-01-17T00:35:12.172Z,74.60
2019-01-17T00:37:26.137Z,74.70
2019-01-17T00:39:40.331Z,75.40
2019-01-17T00:42:00.507Z,76.30
2019-01-17T00:44:14.797Z,76.70
2019-01-17T00:46:22.457Z,77.00
2019-01-17T00:48:30.473Z,76.80
2019-01-17T00:50:38.471Z,77.10
2019-01-17T00:52:58.602Z,76.90
2019-01-17T00:55:19.883Z,76.40
2019-01-17T00:57:27.952Z,76.00
2019-01-17T00:59:33.264Z,76.50
2019-01-17T01:01:47.614Z,76.10
2019-01-17T01:03:55.546Z,76.10
2019-01-17T01:06:18.888Z,75.50
2019-01-17T01:08:26.732Z,74.80
2019-01-17T01:10:32.014Z,74.40
2019-01-17T01:12:46.106Z,74.80
2019-01-17T01:14:57.730Z,74.80
2019-01-17T01:17:11.751Z,74.20
2019-01-17T01:19:19.546Z,73.40
2019-01-17T01:21:42.293Z,73.80
2019-01-17T01:23:50.518Z,73.70
2019-01-17T01:25:55.813Z,73.10
2019-01-17T01:28:16.949Z,74.70
2019-01-17T01:30:34.306Z,74.10
2019-01-17T01:32:39.550Z,74.10
2019-01-17T01:35:03.039Z,74.60
2019-01-17T01:37:24.631Z,74.30
2019-01-17T01:39:29.863Z,74.50
2019-01-17T01:41:43.650Z,74.10
2019-01-17T01:43:57.607Z,74.10
2019-01-17T01:46:02.863Z,74.40
2019-01-17T01:48:17.187Z,74.00
2019-01-17T01:50:38.334Z,73.50
2019-01-17T01:52:43.632Z,73.80
2019-01-17T01:54:47.314Z,73.90
2019-01-17T01:56:50.981Z,73.10
2019-01-17T01:58:54.662Z,73.40
2019-01-17T02:00:58.327Z,73.50
2019-01-17T02:03:02.022Z,73.10
2019-01-17T02:05:05.885Z,72.90
2019-01-17T02:07:09.559Z,73.20
2019-01-17T02:09:13.259Z,73.50
2019-01-17T02:11:16.924Z,72.80
2019-01-17T02:13:20.622Z,73.20
2019-01-17T02:15:24.276Z,73.20
2019-01-17T02:17:28.146Z,73.50
2019-01-17T02:19:31.850Z,73.50
2019-01-17T02:21:35.506Z,73.80
2019-01-17T02:23:39.275Z,73.20
2019-01-17T02:25:42.926Z,73.00
2019-01-17T02:27:46.666Z,72.70
2019-01-17T02:29:50.352Z,72.80
2019-01-17T02:31:54.015Z,72.80
2019-01-17T02:33:57.707Z,72.20
2019-01-17T02:36:01.368Z,72.20
2019-01-17T02:38:05.045Z,72.40
2019-01-17T02:40:10.927Z,72.80
2019-01-17T02:42:14.577Z,73.00
2019-01-17T02:44:18.262Z,73.40
2019-01-17T02:46:21.979Z,73.30
2019-01-17T02:48:25.636Z,73.30
2019-01-17T02:50:29.326Z,73.20
2019-01-17T02:52:32.994Z,73.30
2019-01-17T02:54:36.643Z,74.20
2019-01-17T02:56:40.380Z,74.70
2019-01-17T02:58:44.041Z,74.80
2019-01-17T03:00:47.723Z,74.70
2019-01-17T03:02:51.410Z,74.70
2019-01-17T03:04:55.098Z,74.40
2019-01-17T03:06:58.767Z,74.00
2019-01-17T03:09:02.435Z,74.00
2019-01-17T03:11:06.126Z,74.20
2019-01-17T03:13:09.886Z,74.20
2019-01-17T03:15:13.779Z,74.20
2019-01-17T03:17:17.452Z,73.90
2019-01-17T03:19:21.108Z,73.60
2019-01-17T03:21:24.831Z,73.90
2019-01-17T03:23:28.500Z,73.90
2019-01-17T03:25:32.190Z,73.90
2019-01-17T03:27:35.857Z,74.20
2019-01-17T03:29:39.516Z,74.50
2019-01-17T03:31:43.214Z,74.50
2019-01-17T03:33:46.880Z,74.40
2019-01-17T03:35:50.673Z,74.40
2019-01-17T03:37:54.328Z,73.80
2019-01-17T03:39:57.988Z,74.50
2019-01-17T03:42:01.660Z,74.30
2019-01-17T03:44:05.609Z,74.10
2019-01-17T03:46:09.370Z,74.00
2019-01-17T03:48:13.084Z,74.30
2019-01-17T03:50:16.751Z,74.10
2019-01-17T03:52:20.461Z,74.00
2019-01-17T03:54:24.123Z,74.40
2019-01-17T03:56:27.809Z,74.40
2019-01-17T03:58:31.477Z,74.60
2019-01-17T04:00:35.147Z,74.50
2019-01-17T04:02:38.841Z,74.70
2019-01-17T04:04:42.524Z,74.70
2019-01-17T04:06:46.190Z,74.70
2019-01-17T04:08:49.892Z,75.30
2019-01-17T04:10:53.618Z,75.60
2019-01-17T04:12:57.300Z,75.40
2019-01-17T04:15:00.973Z,75.40
2019-01-17T04:17:04.672Z,75.60
2019-01-17T04:19:08.343Z,75.30
2019-01-17T04:21:12.013Z,75.20
2019-01-17T04:23:15.694Z,75.80
2019-01-17T04:25:19.368Z,76.40
2019-01-17T04:27:23.040Z,76.20
2019-01-17T04:29:26.746Z,77.10
2019-01-17T04:31:30.407Z,77.20
2019-01-17T04:33:34.155Z,77.20
2019-01-17T04:35:37.814Z,76.80
2019-01-17T04:37:41.474Z,76.80
2019-01-17T04:39:45.264Z,76.70
2019-01-17T04:41:48.938Z,76.90
2019-01-17T04:43:52.635Z,77.10
2019-01-17T04:45:56.343Z,77.20
2019-01-17T04:48:00.044Z,77.00
2019-01-17T04:50:04.723Z,76.60
2019-01-17T04:52:08.396Z,76.60
2019-01-17T04:54:12.104Z,76.30
2019-01-17T04:56:15.775Z,76.70
2019-01-17T04:58:19.635Z,76.80
2019-01-17T05:00:23.421Z,76.70
2019-01-17T05:02:27.196Z,76.30
2019-01-17T05:04:30.899Z,76.40
2019-01-17T05:06:34.565Z,76.50
2019-01-17T05:08:38.252Z,76.40
2019-01-17T05:10:41.956Z,76.60
2019-01-17T05:12:45.618Z,76.80
2019-01-17T05:14:49.292Z,76.50
2019-01-17T05:16:54.338Z,76.40
2019-01-17T05:18:58.229Z,76.10
2019-01-17T05:21:01.955Z,76.50
2019-01-17T05:23:06.873Z,76.70
2019-01-17T05:25:12.762Z,77.30
2019-01-17T05:27:16.366Z,77.60
2019-01-17T05:29:20.040Z,79.10
2019-01-17T05:31:23.854Z,79.40
2019-01-17T05:33:27.512Z,79.30
2019-01-17T05:35:31.207Z,79.60
2019-01-17T05:37:35.020Z,79.30
2019-01-17T05:39:38.754Z,78.70
2019-01-17T05:41:42.443Z,78.50
2019-01-17T05:43:46.128Z,78.40
2019-01-17T05:45:49.816Z,77.80
2019-01-17T05:47:53.474Z,77.40
2019-01-17T05:49:57.183Z,77.60
2019-01-17T05:52:00.905Z,77.00
2019-01-17T05:54:04.577Z,76.60
2019-01-17T05:56:08.284Z,76.70
2019-01-17T05:58:11.948Z,76.60
2019-01-17T06:00:20.418Z,76.40
2019-01-17T06:02:24.147Z,76.10
2019-01-17T06:04:27.809Z,76.00
2019-01-17T06:06:33.172Z,75.90
2019-01-17T06:08:37.031Z,75.60
2019-01-17T06:10:40.716Z,75.70
2019-01-17T06:12:44.440Z,75.90
2019-01-17T06:14:48.115Z,76.40
2019-01-17T06:16:51.771Z,76.80
2019-01-17T06:18:55.475Z,76.90
2019-01-17T06:20:59.150Z,77.10
2019-01-17T06:23:02.838Z,76.90
2019-01-17T06:25:06.612Z,76.60
2019-01-17T06:27:10.304Z,76.60
2019-01-17T06:29:14.003Z,76.60
2019-01-17T06:31:17.698Z,76.40
2019-01-17T06:33:21.385Z,76.30
2019-01-17T06:35:25.045Z,76.60
2019-01-17T06:37:28.755Z,76.70
2019-01-17T06:39:32.467Z,76.80
2019-01-17T06:41:36.155Z,76.80
2019-01-17T06:43:39.843Z,77.00
2019-01-17T06:45:43.592Z,77.40
2019-01-17T06:47:47.392Z,77.60
2019-01-17T06:49:51.227Z,78.30
2019-01-17T06:51:55.076Z,78.20
2019-01-17T06:53:58.855Z,77.80
2019-01-17T06:56:02.524Z,78.00
2019-01-17T06:58:06.229Z,78.40
2019-01-17T07:00:12.931Z,78.90
2019-01-17T07:02:16.582Z,78.70
2019-01-17T07:04:20.272Z,78.60
2019-01-17T07:06:23.947Z,78.40
2019-01-17T07:08:27.613Z,78.30
2019-01-17T07:10:31.321Z,77.80
2019-01-17T07:12:34.995Z,78.10
2019-01-17T07:14:38.694Z,79.20
2019-01-17T07:16:42.351Z,79.00
2019-01-17T07:18:46.016Z,78.80
2019-01-17T07:20:49.710Z,78.50
2019-01-17T07:22:53.378Z,78.50
2019-01-17T07:24:57.074Z,78.50
2019-01-17T07:27:00.739Z,78.50
2019-01-17T07:29:04.506Z,78.40
2019-01-17T07:31:08.214Z,78.60
2019-01-17T07:33:11.897Z,78.60
2019-01-17T07:35:15.599Z,78.30
2019-01-17T07:37:19.265Z,78.30
2019-01-17T07:39:22.931Z,78.10
2019-01-17T07:41:26.630Z,77.80
2019-01-17T07:43:30.304Z,77.90
2019-01-17T07:45:33.986Z,77.70
2019-01-17T07:47:37.668Z,76.60
2019-01-17T07:49:41.436Z,76.40
2019-01-17T07:51:45.130Z,76.50
2019-01-17T07:53:48.792Z,77.40
2019-01-17T07:55:52.473Z,78.00
2019-01-17T07:57:56.170Z,78.00
2019-01-17T07:59:59.842Z,78.00
2019-01-17T08:02:03.538Z,77.90
2019-01-17T08:04:07.205Z,77.70
2019-01-17T08:06:11.074Z,76.70
2019-01-17T08:08:14.766Z,76.80
2019-01-17T08:10:19.934Z,78.50
2019-01-17T08:12:23.628Z,78.60
2019-01-17T08:14:27.291Z,78.80
2019-01-17T08:16:30.968Z,79.20
2019-01-17T08:18:34.619Z,79.00
2019-01-17T08:20:38.411Z,79.20
2019-01-17T08:22:42.146Z,79.60
2019-01-17T08:24:45.826Z,79.40
2019-01-17T08:26:49.497Z,79.40
2019-01-17T08:28:55.145Z,79.90
2019-01-17T08:30:58.584Z,80.10
2019-01-17T08:33:02.310Z,79.40
2019-01-17T08:35:06.666Z,79.40
2019-01-17T08:37:10.350Z,79.90
2019-01-17T08:39:14.046Z,79.20
2019-01-17T08:41:17.728Z,79.30
2019-01-17T08:43:21.410Z,79.90
2019-01-17T08:45:25.066Z,79.40
2019-01-17T08:47:28.748Z,79.70
2019-01-17T08:49:32.435Z,80.50
2019-01-17T08:51:36.289Z,80.00
2019-01-17T08:53:40.017Z,80.20
2019-01-17T08:55:43.699Z,79.80
2019-01-17T08:57:47.363Z,79.70
2019-01-17T08:59:51.057Z,80.20
2019-01-17T09:01:54.707Z,80.80
2019-01-17T09:03:58.432Z,79.70
2019-01-17T09:06:02.132Z,79.40
2019-01-17T09:08:06.159Z,79.80
2019-01-17T09:10:21.814Z,80.50
2019-01-17T09:12:25.502Z,81.40
2019-01-17T09:14:29.226Z,81.00
2019-01-17T09:16:32.920Z,80.00
2019-01-17T09:18:36.643Z,78.10
2019-01-17T09:20:40.473Z,77.70
2019-01-17T09:22:44.139Z,78.50
2019-01-17T09:24:47.951Z,78.10
2019-01-17T09:26:51.624Z,78.60
2019-01-17T09:28:55.270Z,79.90
2019-01-17T09:30:58.959Z,80.20
2019-01-17T09:33:02.635Z,80.80
2019-01-17T09:35:09.426Z,79.20
2019-01-17T09:37:13.101Z,78.50
2019-01-17T09:39:16.761Z,78.50
2019-01-17T09:41:20.456Z,78.90
2019-01-17T09:43:24.313Z,78.50
2019-01-17T09:45:28.002Z,77.20
2019-01-17T09:47:31.670Z,77.60
2019-01-17T09:49:35.343Z,76.80
2019-01-17T09:51:39.043Z,77.20
2019-01-17T09:53:42.716Z,78.20
2019-01-17T09:55:46.400Z,77.40
2019-01-17T09:57:50.074Z,77.40
2019-01-17T09:59:53.766Z,77.10
2019-01-17T10:01:57.457Z,77.40
2019-01-17T10:04:01.228Z,76.30
2019-01-17T10:06:05.003Z,77.50
2019-01-17T10:08:08.691Z,79.20
2019-01-17T10:10:15.025Z,79.50
2019-01-17T10:12:18.722Z,79.40
2019-01-17T10:14:22.384Z,79.50
2019-01-17T10:16:29.007Z,80.20
2019-01-17T10:18:44.111Z,81.30
2019-01-17T10:21:09.882Z,82.10
2019-01-17T10:23:36.176Z,82.60
2019-01-17T10:25:48.757Z,83.10
2019-01-17T10:27:58.291Z,83.30
2019-01-17T10:30:35.245Z,84.50
2019-01-17T10:32:47.957Z,83.90
2019-01-17T10:35:00.395Z,83.50
2019-01-17T10:37:26.556Z,83.40
2019-01-17T10:39:55.891Z,83.50
2019-01-17T10:42:21.947Z,84.10
2019-01-17T10:44:43.379Z,83.90
2019-01-17T10:47:06.117Z,83.80
2019-01-17T10:49:33.563Z,84.70
2019-01-17T10:52:07.080Z,84.40
2019-01-17T10:54:13.741Z,85.70
2019-01-17T10:56:41.038Z,86.60
2019-01-17T10:58:46.473Z,87.90
2019-01-17T11:00:55.794Z,86.00
2019-01-17T11:03:17.092Z,87.00
2019-01-17T11:05:38.600Z,88.20
2019-01-17T11:08:14.089Z,85.30
2019-01-17T11:10:26.221Z,85.50
2019-01-17T11:12:35.581Z,85.90
2019-01-17T11:14:47.847Z,86.00
2019-01-17T11:16:59.949Z,87.90
2019-01-17T11:19:12.126Z,86.90
2019-01-17T11:21:30.272Z,84.50
2019-01-17T11:24:11.564Z,86.10
2019-01-17T11:26:36.057Z,85.90
2019-01-17T11:28:54.732Z,85.80
2019-01-17T11:31:27.339Z,86.20
2019-01-17T11:33:49.025Z,86.80
2019-01-17T11:36:04.239Z,86.40
2019-01-17T11:38:16.863Z,86.70
2019-01-17T11:40:34.530Z,85.90
2019-01-17T11:42:44.067Z,85.70
2019-01-17T11:44:56.850Z,84.20
2019-01-17T11:47:35.126Z,85.00
2019-01-17T11:49:44.542Z,83.60
2019-01-17T11:52:09.443Z,83.00
2019-01-17T11:54:21.987Z,82.80
2019-01-17T11:56:40.794Z,83.40
2019-01-17T11:59:11.863Z,83.40
2019-01-17T12:01:34.742Z,81.90
2019-01-17T12:03:59.187Z,80.20
2019-01-17T12:06:02.854Z,81.30
2019-01-17T12:08:06.582Z,81.00
2019-01-17T12:10:10.238Z,80.10
2019-01-17T12:12:15.506Z,80.60
2019-01-17T12:14:19.195Z,80.20
2019-01-17T12:16:22.957Z,79.90
2019-01-17T12:18:26.614Z,79.80
2019-01-17T12:20:30.300Z,79.50
2019-01-17T12:22:34.087Z,80.30
2019-01-17T12:24:37.751Z,79.20
2019-01-17T12:26:47.286Z,78.60
2019-01-17T12:28:46.807Z,77.70
2019-01-17T12:30:50.499Z,78.00
2019-01-17T12:32:54.196Z,77.40
2019-01-17T12:34:57.915Z,77.70
2019-01-17T12:37:01.580Z,77.90
2019-01-17T12:39:08.209Z,77.80
2019-01-17T12:41:11.878Z,76.80
2019-01-17T12:43:15.562Z,76.70
2019-01-17T12:45:19.234Z,77.20
2019-01-17T12:47:22.922Z,76.70
2019-01-17T12:49:26.582Z,76.70
2019-01-17T12:51:30.263Z,76.70
2019-01-17T12:53:33.947Z,77.50
2019-01-17T12:55:37.606Z,76.80
2019-01-17T12:57:41.280Z,76.90
2019-01-17T12:59:45.035Z,76.80
2019-01-17T13:01:48.693Z,76.80
2019-01-17T13:03:52.401Z,75.80
2019-01-17T13:05:56.059Z,76.00
2019-01-17T13:07:59.791Z,76.70
2019-01-17T13:10:04.452Z,75.80
2019-01-17T13:12:08.129Z,76.20
2019-01-17T13:14:11.809Z,76.60
2019-01-17T13:16:15.474Z,77.00
2019-01-17T13:18:19.159Z,76.00
2019-01-17T13:20:22.943Z,76.10
2019-01-17T13:22:26.623Z,75.90
2019-01-17T13:24:30.324Z,76.60
2019-01-17T13:26:33.985Z,75.00
2019-01-17T13:28:37.653Z,75.80
2019-01-17T13:30:41.369Z,75.50
2019-01-17T13:32:45.131Z,74.80
2019-01-17T13:34:48.851Z,75.30
2019-01-17T13:36:52.528Z,74.50
2019-01-17T13:38:56.185Z,74.70
2019-01-17T13:40:59.902Z,74.90
2019-01-17T13:43:03.588Z,74.70
2019-01-17T13:45:10.233Z,75.40
2019-01-17T13:47:13.900Z,75.10
2019-01-17T13:49:17.569Z,75.30
2019-01-17T13:51:21.255Z,74.00
2019-01-17T13:53:24.914Z,73.90
2019-01-17T13:55:28.594Z,73.30
2019-01-17T13:57:32.253Z,73.60
2019-01-17T13:59:38.232Z,74.00
2019-01-17T14:01:41.935Z,72.80
2019-01-17T14:03:45.602Z,73.40
2019-01-17T14:05:49.289Z,72.90
2019-01-17T14:07:53.512Z,73.10
2019-01-17T14:09:57.161Z,73.30
2019-01-17T14:12:00.861Z,72.60
2019-01-17T14:14:04.519Z,73.50
2019-01-17T14:16:08.231Z,74.50
2019-01-17T14:18:11.891Z,78.30
2019-01-17T14:20:15.615Z,79.30
2019-01-17T14:22:19.315Z,80.50
2019-01-17T14:24:22.976Z,81.20
2019-01-17T14:26:26.661Z,80.90
2019-01-17T14:28:30.331Z,81.70
2019-01-17T14:30:34.681Z,82.20
2019-01-17T14:32:38.362Z,83.00
2019-01-17T14:34:42.127Z,81.90
2019-01-17T14:36:45.889Z,83.20
2019-01-17T14:38:49.656Z,85.50
2019-01-17T14:40:53.371Z,84.80
2019-01-17T14:42:57.060Z,83.70
2019-01-17T14:45:00.716Z,83.60
2019-01-17T14:47:04.414Z,81.90
2019-01-17T14:49:08.082Z,81.60
2019-01-17T14:51:11.791Z,81.60
2019-01-17T14:53:15.612Z,81.60
2019-01-17T14:55:19.315Z,81.70
2019-01-17T14:57:23.017Z,82.50
2019-01-17T14:59:26.715Z,84.60
2019-01-17T15:01:30.475Z,85.30
2019-01-17T15:03:34.175Z,87.00
2019-01-17T15:05:37.815Z,87.50
2019-01-17T15:07:41.663Z,88.10
2019-01-17T15:09:45.406Z,87.90
2019-01-17T15:11:49.067Z,88.70
2019-01-17T15:13:52.866Z,89.20
2019-01-17T15:15:56.530Z,89.00
2019-01-17T15:18:00.236Z,88.30
2019-01-17T15:20:05.461Z,89.50
2019-01-17T15:22:09.111Z,88.90
2019-01-17T15:24:12.799Z,88.70
2019-01-17T15:26:16.470Z,88.30
2019-01-17T15:28:20.119Z,87.60
2019-01-17T15:30:25.403Z,87.20
2019-01-17T15:32:29.058Z,87.30
2019-01-17T15:34:32.774Z,87.00
2019-01-17T15:36:36.441Z,87.40
2019-01-17T15:38:40.095Z,87.30
2019-01-17T15:40:43.904Z,87.00
2019-01-17T15:42:47.566Z,86.90
2019-01-17T15:44:51.246Z,85.70
2019-01-17T15:46:54.959Z,86.40
2019-01-17T15:48:58.627Z,86.20
2019-01-17T15:51:02.321Z,84.70
2019-01-17T15:53:06.019Z,84.20
2019-01-17T15:55:12.480Z,84.30
2019-01-17T15:57:16.176Z,84.10
2019-01-17T15:59:23.217Z,84.80
2019-01-17T16:01:25.229Z,84.40
2019-01-17T16:03:28.894Z,84.30
2019-01-17T16:05:32.635Z,84.20
2019-01-17T16:07:36.282Z,85.00
2019-01-17T16:09:39.966Z,84.40
2019-01-17T16:11:43.653Z,84.30
2019-01-17T16:13:47.316Z,84.00
2019-01-17T16:15:52.002Z,83.50
2019-01-17T16:17:55.654Z,82.60
2019-01-17T16:19:59.316Z,83.50
2019-01-17T16:22:03.010Z,83.20
2019-01-17T16:24:06.682Z,82.80
2019-01-17T16:26:10.420Z,82.90
2019-01-17T16:28:14.179Z,83.60
2019-01-17T16:30:20.763Z,83.90
2019-01-17T16:32:24.470Z,82.80
2019-01-17T16:34:28.122Z,83.50
2019-01-17T16:36:31.822Z,83.10
2019-01-17T16:38:35.546Z,83.90
2019-01-17T16:40:39.210Z,83.70
2019-01-17T16:42:42.911Z,83.80
2019-01-17T16:44:46.590Z,82.60
2019-01-17T16:46:50.261Z,83.30
2019-01-17T16:48:53.927Z,83.60
2019-01-17T16:50:57.604Z,83.80
2019-01-17T16:53:01.296Z,81.90
2019-01-17T16:55:05.794Z,82.10
2019-01-17T16:57:09.491Z,80.60
2019-01-17T16:59:13.142Z,81.60
2019-01-17T17:01:16.806Z,81.40
2019-01-17T17:03:20.503Z,80.40
2019-01-17T17:05:24.173Z,79.30
2019-01-17T17:07:27.831Z,79.70
2019-01-17T17:09:31.575Z,80.00
2019-01-17T17:11:35.352Z,79.50
2019-01-17T17:13:39.055Z,82.50
2019-01-17T17:15:42.709Z,82.20
2019-01-17T17:17:46.385Z,82.20
2019-01-17T17:19:50.065Z,81.90
2019-01-17T17:21:53.731Z,81.10
2019-01-17T17:23:57.431Z,79.70
2019-01-17T17:26:01.130Z,79.20
2019-01-17T17:28:04.895Z,79.40
2019-01-17T17:30:11.558Z,78.30
2019-01-17T17:32:15.231Z,78.30
2019-01-17T17:34:18.916Z,78.50
2019-01-17T17:36:22.688Z,78.20
2019-01-17T17:38:26.358Z,77.50
2019-01-17T17:40:30.132Z,78.30
2019-01-17T17:42:33.790Z,78.00
2019-01-17T17:44:37.478Z,77.10
2019-01-17T17:46:41.139Z,76.80
2019-01-17T17:48:44.803Z,77.10
2019-01-17T17:50:48.543Z,77.00
2019-01-17T17:52:52.198Z,76.90
2019-01-17T17:54:56.016Z,75.90
2019-01-17T17:56:59.666Z,76.70
2019-01-17T17:59:03.377Z,76.10
2019-01-17T18:01:08.045Z,75.70
2019-01-17T18:03:11.691Z,75.90
2019-01-17T18:05:15.446Z,76.70
2019-01-17T18:07:19.106Z,76.40
2019-01-17T18:09:22.771Z,76.10
2019-01-17T18:11:26.468Z,76.90
2019-01-17T18:13:30.132Z,77.10
2019-01-17T18:15:34.106Z,77.00
2019-01-17T18:17:37.780Z,75.60
2019-01-17T18:19:41.449Z,75.70
2019-01-17T18:21:45.283Z,77.00
2019-01-17T18:23:48.937Z,75.90
2019-01-17T18:25:52.623Z,75.90
2019-01-17T18:27:56.306Z,77.10
2019-01-17T18:29:59.963Z,76.30
2019-01-17T18:32:04.151Z,77.40
2019-01-17T18:34:07.858Z,76.70
2019-01-17T18:36:11.632Z,75.80
2019-01-17T18:38:15.323Z,77.00
2019-01-17T18:40:20.091Z,76.00
2019-01-17T18:42:23.797Z,75.80
2019-01-17T18:44:27.454Z,75.50
2019-01-17T18:46:31.107Z,74.70
2019-01-17T18:48:34.802Z,76.20
2019-01-17T18:50:38.473Z,74.30
2019-01-17T18:52:42.155Z,77.20
2019-01-17T18:54:45.814Z,83.00
2019-01-17T18:56:49.506Z,87.00
2019-01-17T18:58:53.206Z,87.80
2019-01-17T19:00:56.968Z,88.50
2019-01-17T19:03:00.658Z,88.60
2019-01-17T19:05:05.550Z,87.60
2019-01-17T19:07:09.258Z,87.20
2019-01-17T19:09:12.916Z,86.50
2019-01-17T19:11:16.590Z,86.10
2019-01-17T19:13:20.286Z,85.70
2019-01-17T19:15:29.235Z,86.90
2019-01-17T19:17:32.984Z,85.60
2019-01-17T19:19:36.630Z,87.40
2019-01-17T19:21:40.299Z,87.70
2019-01-17T19:23:43.980Z,88.50
2019-01-17T19:25:47.653Z,86.90
2019-01-17T19:27:51.355Z,88.30
2019-01-17T19:29:55.040Z,89.80
2019-01-17T19:31:58.698Z,89.30
2019-01-17T19:34:02.393Z,90.70
2019-01-17T19:36:06.051Z,91.00
2019-01-17T19:38:09.717Z,90.90
2019-01-17T19:40:27.199Z,91.10
2019-01-17T19:42:30.868Z,91.60
2019-01-17T19:44:34.557Z,91.40
2019-01-17T19:46:38.290Z,90.20
2019-01-17T19:48:41.946Z,88.50
2019-01-17T19:50:45.642Z,88.60
2019-01-17T19:52:49.426Z,87.90
2019-01-17T19:54:53.140Z,86.30
2019-01-17T19:56:56.861Z,85.90
2019-01-17T19:59:00.522Z,87.10
2019-01-17T20:01:05.335Z,86.10
2019-01-17T20:03:08.999Z,86.20
2019-01-17T20:05:15.416Z,87.20
2019-01-17T20:07:19.063Z,86.60
2019-01-17T20:09:22.743Z,85.80
2019-01-17T20:11:26.462Z,84.90
2019-01-17T20:13:30.190Z,85.60
2019-01-17T20:15:33.897Z,85.00
2019-01-17T20:17:37.649Z,84.50
2019-01-17T20:19:41.336Z,84.90
2019-01-17T20:21:45.040Z,85.70
2019-01-17T20:23:48.801Z,84.00
2019-01-17T20:25:52.485Z,86.50
2019-01-17T20:27:56.130Z,87.10
2019-01-17T20:29:59.798Z,87.40
2019-01-17T20:32:03.531Z,88.20
2019-01-17T20:34:07.199Z,88.30
2019-01-17T20:36:10.883Z,86.20
2019-01-17T20:38:14.571Z,86.10
2019-01-17T20:40:20.343Z,87.30
2019-01-17T20:42:24.380Z,84.80
2019-01-17T20:44:28.041Z,86.70
2019-01-17T20:46:31.737Z,87.70
2019-01-17T20:48:35.406Z,85.20
2019-01-17T20:50:39.085Z,83.60
2019-01-17T20:52:42.767Z,83.50
2019-01-17T20:54:46.418Z,85.50
2019-01-17T20:56:50.101Z,84.40
2019-01-17T20:58:53.793Z,85.00
2019-01-17T21:01:05.906Z,84.90
2019-01-17T21:03:11.101Z,85.10
2019-01-17T21:05:15.545Z,85.00
2019-01-17T21:07:19.291Z,83.80
2019-01-17T21:09:23.059Z,83.30
2019-01-17T21:11:26.728Z,84.10
2019-01-17T21:13:30.518Z,83.30
2019-01-17T21:15:34.176Z,85.10
2019-01-17T21:17:37.896Z,83.40
2019-01-17T21:19:41.555Z,82.10
2019-01-17T21:21:45.216Z,83.80
2019-01-17T21:23:48.910Z,83.20
2019-01-17T21:25:52.576Z,83.30
2019-01-17T21:27:56.260Z,82.20
2019-01-17T21:29:59.924Z,81.50
2019-01-17T21:32:03.617Z,80.80
2019-01-17T21:34:07.330Z,81.30
2019-01-17T21:36:10.995Z,80.50
2019-01-17T21:38:14.700Z,80.50
2019-01-17T21:40:20.158Z,80.20
2019-01-17T21:42:23.872Z,79.30
2019-01-17T21:44:27.603Z,79.70
2019-01-17T21:46:31.291Z,80.10
2019-01-17T21:48:35.009Z,79.80
2019-01-17T21:50:38.715Z,79.90
2019-01-17T21:52:42.378Z,80.60
2019-01-17T21:54:46.139Z,79.70
2019-01-17T21:56:49.804Z,78.70
2019-01-17T21:58:56.057Z,79.10
2019-01-17T22:00:58.900Z,79.20
2019-01-17T22:03:02.572Z,79.20
2019-01-17T22:05:07.146Z,77.50
2019-01-17T22:07:10.814Z,77.90
2019-01-17T22:09:14.574Z,78.00
2019-01-17T22:11:18.242Z,82.70
2019-01-17T22:13:21.894Z,87.50
2019-01-17T22:15:26.597Z,91.40
2019-01-17T22:17:30.271Z,92.30
2019-01-17T22:19:33.930Z,92.50
2019-01-17T22:21:37.616Z,92.80
2019-01-17T22:23:41.262Z,92.60
2019-01-17T22:25:45.011Z,91.90
2019-01-17T22:27:50.500Z,92.50
2019-01-17T22:29:54.155Z,92.90
2019-01-17T22:31:57.867Z,92.40
2019-01-17T22:34:01.539Z,92.00
2019-01-17T22:36:05.225Z,91.40
2019-01-17T22:38:08.888Z,91.10
2019-01-17T22:40:17.237Z,91.00
2019-01-17T22:42:20.952Z,89.70
2019-01-17T22:44:24.799Z,90.30
2019-01-17T22:46:28.547Z,90.40
2019-01-17T22:48:32.226Z,90.60
2019-01-17T22:50:35.885Z,90.60
2019-01-17T22:52:39.578Z,90.30
2019-01-17T22:54:43.244Z,91.50
2019-01-17T22:56:46.919Z,90.80
2019-01-17T22:58:50.581Z,91.60
2019-01-17T23:00:57.191Z,91.10
2019-01-17T23:03:00.878Z,91.10
2019-01-17T23:05:04.931Z,90.60
2019-01-17T23:07:08.611Z,90.30
2019-01-17T23:09:12.266Z,90.20
2019-01-17T23:11:16.023Z,89.70
2019-01-17T23:13:19.722Z,88.30
2019-01-17T23:15:23.413Z,87.30
2019-01-17T23:17:27.071Z,87.00
2019-01-17T23:19:30.781Z,86.00
2019-01-17T23:21:34.435Z,85.90
2019-01-17T23:23:38.463Z,84.40
2019-01-17T23:25:42.136Z,84.20
2019-01-17T23:27:45.822Z,84.40
2019-01-17T23:29:49.520Z,84.40
2019-01-17T23:31:53.178Z,85.50
2019-01-17T23:33:56.861Z,83.90
2019-01-17T23:36:00.511Z,85.10
2019-01-17T23:38:04.192Z,85.40
2019-01-17T23:40:09.578Z,89.90
2019-01-17T23:42:13.254Z,91.30
2019-01-17T23:44:16.938Z,90.60
2019-01-17T23:46:20.595Z,88.40
2019-01-17T23:48:24.347Z,89.40
2019-01-17T23:50:28.050Z,88.90
2019-01-17T23:52:31.710Z,89.50
2019-01-17T23:54:35.378Z,89.10
2019-01-17T23:56:39.061Z,87.10
2019-01-17T23:58:42.756Z,85.90
